JAG543 KFLL-TNCM
Flight info
| Callsign | JAG543 |
|---|---|
| Flight time | 2h 28m |
| Altitude | 37000 |
| Route | SNAPR2 SUMAC Y421 HAGIT Y290 SLUGO |
| Aircraft | A320/M-SDE3FGHIRWY/LB1 |
Departure
| Time | 2026-05-06 17:16 |
|---|---|
| Airport | Fort Lauderdale Hollywood International Airport (KFLL) |
Arrival
| Time | 2026-05-06 19:44 |
|---|---|
| Airport | Princess Juliana International Airport (TNCM) |
| Time | Latitude | Longitude | Altitude | Speed | Heading |
|---|---|---|---|---|---|
| 2026-05-06 16:49 | 26.06890 | -80.14550 | 18 ft | 0 kts | 22° |
| 2026-05-06 17:07 | 26.06881 | -80.14555 | 26 ft | 3 kts | 22° |
| 2026-05-06 17:07 | 26.06865 | -80.14563 | 16 ft | 3 kts | 12° |
| 2026-05-06 17:07 | 26.06848 | -80.14561 | 18 ft | 3 kts | 341° |
| 2026-05-06 17:08 | 26.06831 | -80.14554 | 20 ft | 3 kts | 341° |
| 2026-05-06 17:08 | 26.06814 | -80.14548 | 18 ft | 3 kts | 341° |
| 2026-05-06 17:08 | 26.06799 | -80.14542 | 16 ft | 2 kts | 324° |
| 2026-05-06 17:08 | 26.06786 | -80.14531 | 16 ft | 2 kts | 321° |
| 2026-05-06 17:09 | 26.06773 | -80.14519 | 16 ft | 2 kts | 321° |
| 2026-05-06 17:09 | 26.06760 | -80.14508 | 19 ft | 2 kts | 297° |
| 2026-05-06 17:09 | 26.06757 | -80.14501 | 20 ft | 0 kts | 276° |
| 2026-05-06 17:11 | 26.06759 | -80.14522 | 19 ft | 6 kts | 276° |
| 2026-05-06 17:12 | 26.06765 | -80.14579 | 16 ft | 9 kts | 270° |
| 2026-05-06 17:12 | 26.06765 | -80.14650 | 16 ft | 10 kts | 270° |
| 2026-05-06 17:12 | 26.06766 | -80.14727 | 18 ft | 10 kts | 270° |
| 2026-05-06 17:12 | 26.06766 | -80.14798 | 20 ft | 9 kts | 270° |
| 2026-05-06 17:13 | 26.06766 | -80.14867 | 22 ft | 9 kts | 270° |
| 2026-05-06 17:13 | 26.06735 | -80.14923 | 22 ft | 10 kts | 199° |
| 2026-05-06 17:13 | 26.06695 | -80.14983 | 22 ft | 11 kts | 266° |
| 2026-05-06 17:13 | 26.06695 | -80.15075 | 23 ft | 12 kts | 270° |
| 2026-05-06 17:14 | 26.06695 | -80.15175 | 25 ft | 13 kts | 270° |
| 2026-05-06 17:14 | 26.06695 | -80.15281 | 26 ft | 14 kts | 269° |
| 2026-05-06 17:14 | 26.06697 | -80.15396 | 32 ft | 16 kts | 271° |
| 2026-05-06 17:14 | 26.06698 | -80.15529 | 25 ft | 19 kts | 270° |
| 2026-05-06 17:15 | 26.06698 | -80.15687 | 23 ft | 18 kts | 271° |
| 2026-05-06 17:15 | 26.06641 | -80.15742 | 22 ft | 17 kts | 178° |
| 2026-05-06 17:15 | 26.06588 | -80.15673 | 24 ft | 13 kts | 89° |
| 2026-05-06 17:15 | 26.06587 | -80.15409 | 24 ft | 67 kts | 90° |
| 2026-05-06 17:16 | 26.06582 | -80.14647 | 20 ft | 126 kts | 90° |
| 2026-05-06 17:16 | 26.06576 | -80.13533 | 286 ft | 149 kts | 90° |
| 2026-05-06 17:16 | 26.06551 | -80.12350 | 795 ft | 157 kts | 90° |
| 2026-05-06 17:16 | 26.06560 | -80.11073 | 1211 ft | 176 kts | 89° |
| 2026-05-06 17:17 | 26.06592 | -80.09626 | 1523 ft | 199 kts | 88° |
| 2026-05-06 17:17 | 26.06626 | -80.07989 | 1933 ft | 223 kts | 89° |
| 2026-05-06 17:17 | 26.06660 | -80.06197 | 2350 ft | 247 kts | 89° |
| 2026-05-06 17:17 | 26.06688 | -80.04223 | 3010 ft | 260 kts | 89° |
| 2026-05-06 17:18 | 26.06710 | -80.02190 | 3892 ft | 265 kts | 90° |
| 2026-05-06 17:18 | 26.06725 | -80.00124 | 4807 ft | 269 kts | 91° |
| 2026-05-06 17:18 | 26.06719 | -79.98026 | 5694 ft | 274 kts | 91° |
| 2026-05-06 17:18 | 26.06700 | -79.95887 | 6568 ft | 279 kts | 90° |
| 2026-05-06 17:19 | 26.06674 | -79.93714 | 7390 ft | 283 kts | 90° |
| 2026-05-06 17:19 | 26.06647 | -79.91512 | 8210 ft | 287 kts | 89° |
| 2026-05-06 17:19 | 26.06621 | -79.89281 | 9027 ft | 290 kts | 89° |
| 2026-05-06 17:19 | 26.06597 | -79.87021 | 9833 ft | 294 kts | 88° |
| 2026-05-06 17:20 | 26.06574 | -79.84700 | 10252 ft | 310 kts | 88° |
| 2026-05-06 17:20 | 26.06427 | -79.82211 | 10395 ft | 335 kts | 97° |
| 2026-05-06 17:20 | 26.06015 | -79.79614 | 10817 ft | 344 kts | 97° |
| 2026-05-06 17:20 | 26.05601 | -79.76975 | 11395 ft | 349 kts | 97° |
| 2026-05-06 17:21 | 26.05185 | -79.74300 | 11988 ft | 353 kts | 97° |
| 2026-05-06 17:21 | 26.04766 | -79.71603 | 12592 ft | 356 kts | 97° |
| 2026-05-06 17:21 | 26.04341 | -79.68878 | 13192 ft | 359 kts | 97° |
| 2026-05-06 17:21 | 26.03910 | -79.66124 | 13785 ft | 363 kts | 96° |
| 2026-05-06 17:22 | 26.03436 | -79.63357 | 14292 ft | 367 kts | 98° |
| 2026-05-06 17:22 | 26.02848 | -79.60575 | 14774 ft | 372 kts | 101° |
| 2026-05-06 17:22 | 26.02182 | -79.57776 | 15248 ft | 377 kts | 102° |
| 2026-05-06 17:22 | 26.01478 | -79.54951 | 15723 ft | 381 kts | 102° |
| 2026-05-06 17:23 | 26.00765 | -79.52102 | 16192 ft | 385 kts | 102° |
| 2026-05-06 17:23 | 26.00056 | -79.49218 | 16657 ft | 389 kts | 101° |
| 2026-05-06 17:23 | 25.99354 | -79.46300 | 17125 ft | 393 kts | 101° |
| 2026-05-06 17:23 | 25.98657 | -79.43350 | 17586 ft | 396 kts | 101° |
| 2026-05-06 17:24 | 25.97962 | -79.40382 | 18039 ft | 401 kts | 100° |
| 2026-05-06 17:24 | 25.97152 | -79.37377 | 18465 ft | 408 kts | 107° |
| 2026-05-06 17:24 | 25.96132 | -79.34425 | 18861 ft | 412 kts | 107° |
| 2026-05-06 17:24 | 25.95097 | -79.31441 | 19276 ft | 414 kts | 107° |
| 2026-05-06 17:25 | 25.94055 | -79.28445 | 19699 ft | 417 kts | 108° |
| 2026-05-06 17:25 | 25.93003 | -79.25431 | 20129 ft | 420 kts | 108° |
| 2026-05-06 17:25 | 25.91943 | -79.22398 | 20549 ft | 423 kts | 108° |
| 2026-05-06 17:25 | 25.90872 | -79.19340 | 20969 ft | 426 kts | 108° |
| 2026-05-06 17:26 | 25.89795 | -79.16262 | 21386 ft | 428 kts | 108° |
| 2026-05-06 17:26 | 25.88718 | -79.13169 | 21801 ft | 431 kts | 108° |
| 2026-05-06 17:26 | 25.87649 | -79.10102 | 22196 ft | 434 kts | 108° |
| 2026-05-06 17:26 | 25.86554 | -79.06965 | 22604 ft | 436 kts | 108° |
| 2026-05-06 17:27 | 25.85451 | -79.03809 | 23002 ft | 439 kts | 108° |
| 2026-05-06 17:27 | 25.84339 | -79.00635 | 23389 ft | 442 kts | 109° |
| 2026-05-06 17:27 | 25.83217 | -78.97443 | 23751 ft | 445 kts | 108° |
| 2026-05-06 17:27 | 25.82093 | -78.94242 | 24078 ft | 447 kts | 108° |
| 2026-05-06 17:28 | 25.80963 | -78.91016 | 24414 ft | 449 kts | 108° |
| 2026-05-06 17:28 | 25.79824 | -78.87772 | 24739 ft | 452 kts | 108° |
| 2026-05-06 17:28 | 25.78680 | -78.84514 | 25062 ft | 454 kts | 108° |
| 2026-05-06 17:28 | 25.77530 | -78.81246 | 25380 ft | 456 kts | 108° |
| 2026-05-06 17:29 | 25.76369 | -78.77957 | 25703 ft | 459 kts | 108° |
| 2026-05-06 17:29 | 25.75201 | -78.74649 | 26028 ft | 461 kts | 108° |
| 2026-05-06 17:29 | 25.73880 | -78.71389 | 26341 ft | 467 kts | 116° |
| 2026-05-06 17:29 | 25.72137 | -78.68332 | 26653 ft | 471 kts | 122° |
| 2026-05-06 17:30 | 25.70290 | -78.65322 | 26955 ft | 474 kts | 121° |
| 2026-05-06 17:30 | 25.68429 | -78.62295 | 27258 ft | 476 kts | 121° |
| 2026-05-06 17:30 | 25.66560 | -78.59257 | 27553 ft | 479 kts | 121° |
| 2026-05-06 17:30 | 25.64679 | -78.56200 | 27850 ft | 481 kts | 121° |
| 2026-05-06 17:31 | 25.62786 | -78.53124 | 28167 ft | 484 kts | 121° |
| 2026-05-06 17:31 | 25.60887 | -78.50035 | 28483 ft | 486 kts | 121° |
| 2026-05-06 17:31 | 25.59020 | -78.46900 | 28798 ft | 487 kts | 117° |
| 2026-05-06 17:31 | 25.57520 | -78.43545 | 29113 ft | 485 kts | 107° |
| 2026-05-06 17:32 | 25.56469 | -78.40006 | 29423 ft | 484 kts | 101° |
| 2026-05-06 17:32 | 25.55863 | -78.37625 | 29639 ft | 485 kts | 101° |
| 2026-05-06 17:32 | 25.54945 | -78.34018 | 29966 ft | 488 kts | 101° |
| 2026-05-06 17:32 | 25.54022 | -78.30403 | 30261 ft | 490 kts | 101° |
| 2026-05-06 17:33 | 25.53090 | -78.26762 | 30529 ft | 492 kts | 101° |
| 2026-05-06 17:33 | 25.52153 | -78.23110 | 30802 ft | 495 kts | 101° |
| 2026-05-06 17:33 | 25.51205 | -78.19429 | 31070 ft | 497 kts | 101° |
| 2026-05-06 17:33 | 25.49948 | -78.14543 | 31437 ft | 500 kts | 101° |
| 2026-05-06 17:34 | 25.49306 | -78.12040 | 31609 ft | 502 kts | 101° |
| 2026-05-06 17:34 | 25.48349 | -78.08315 | 31955 ft | 502 kts | 101° |
| 2026-05-06 17:34 | 25.47391 | -78.04595 | 32348 ft | 501 kts | 102° |
| 2026-05-06 17:34 | 25.46433 | -78.00891 | 32741 ft | 501 kts | 102° |
| 2026-05-06 17:35 | 25.45484 | -77.97238 | 33125 ft | 500 kts | 102° |
| 2026-05-06 17:35 | 25.44521 | -77.93542 | 33576 ft | 498 kts | 101° |
| 2026-05-06 17:35 | 25.43567 | -77.89875 | 34081 ft | 495 kts | 101° |
| 2026-05-06 17:36 | 25.41671 | -77.82561 | 34807 ft | 494 kts | 101° |
| 2026-05-06 17:36 | 25.40728 | -77.78908 | 35124 ft | 494 kts | 101° |
| 2026-05-06 17:36 | 25.39784 | -77.75260 | 35424 ft | 494 kts | 101° |
| 2026-05-06 17:36 | 25.38833 | -77.71606 | 35721 ft | 494 kts | 102° |
| 2026-05-06 17:37 | 25.37881 | -77.67952 | 36017 ft | 495 kts | 102° |
| 2026-05-06 17:37 | 25.36928 | -77.64299 | 36304 ft | 495 kts | 102° |
| 2026-05-06 17:37 | 25.35972 | -77.60640 | 36584 ft | 495 kts | 102° |
| 2026-05-06 17:37 | 25.35013 | -77.56978 | 36863 ft | 495 kts | 102° |
| 2026-05-06 17:38 | 25.34058 | -77.53325 | 37069 ft | 496 kts | 102° |
| 2026-05-06 17:38 | 25.33100 | -77.49662 | 37112 ft | 495 kts | 102° |
| 2026-05-06 17:38 | 25.31193 | -77.42421 | 37117 ft | 494 kts | 102° |
| 2026-05-06 17:39 | 25.29042 | -77.35197 | 37115 ft | 499 kts | 111° |
| 2026-05-06 17:39 | 25.25487 | -77.28571 | 37115 ft | 503 kts | 120° |
| 2026-05-06 17:40 | 25.21690 | -77.22078 | 37127 ft | 503 kts | 120° |
| 2026-05-06 17:40 | 25.17915 | -77.15626 | 37122 ft | 504 kts | 120° |
| 2026-05-06 17:41 | 25.14119 | -77.09124 | 37120 ft | 504 kts | 120° |
| 2026-05-06 17:41 | 25.10318 | -77.02611 | 37125 ft | 504 kts | 120° |
| 2026-05-06 17:42 | 25.06513 | -76.96112 | 37127 ft | 505 kts | 120° |
| 2026-05-06 17:42 | 25.02697 | -76.89616 | 37119 ft | 504 kts | 120° |
| 2026-05-06 17:43 | 24.98880 | -76.83125 | 37134 ft | 504 kts | 120° |
| 2026-05-06 17:43 | 24.95064 | -76.76634 | 37130 ft | 504 kts | 120° |
| 2026-05-06 17:44 | 24.91244 | -76.70161 | 37123 ft | 504 kts | 120° |
| 2026-05-06 17:44 | 24.87416 | -76.63675 | 37126 ft | 504 kts | 120° |
| 2026-05-06 17:45 | 24.83612 | -76.57227 | 37124 ft | 505 kts | 120° |
| 2026-05-06 17:45 | 24.79788 | -76.50753 | 37123 ft | 505 kts | 120° |
| 2026-05-06 17:46 | 24.75953 | -76.44273 | 37132 ft | 505 kts | 120° |
| 2026-05-06 17:46 | 24.72116 | -76.37807 | 37127 ft | 504 kts | 120° |
| 2026-05-06 17:47 | 24.68274 | -76.31341 | 37122 ft | 504 kts | 120° |
| 2026-05-06 17:47 | 24.64445 | -76.24896 | 37128 ft | 503 kts | 120° |
| 2026-05-06 17:48 | 24.60606 | -76.18454 | 37135 ft | 503 kts | 120° |
| 2026-05-06 17:48 | 24.56795 | -76.12070 | 37143 ft | 503 kts | 119° |
| 2026-05-06 17:49 | 24.53098 | -76.05562 | 37138 ft | 501 kts | 117° |
| 2026-05-06 17:49 | 24.49508 | -75.98991 | 37135 ft | 501 kts | 117° |
| 2026-05-06 17:50 | 24.45896 | -75.92442 | 37131 ft | 501 kts | 118° |
| 2026-05-06 17:50 | 24.42229 | -75.85928 | 37129 ft | 502 kts | 118° |
| 2026-05-06 17:51 | 24.38550 | -75.79416 | 37132 ft | 502 kts | 118° |
| 2026-05-06 17:51 | 24.34878 | -75.72905 | 37137 ft | 502 kts | 118° |
| 2026-05-06 17:52 | 24.31214 | -75.66393 | 37125 ft | 501 kts | 118° |
| 2026-05-06 17:52 | 24.27580 | -75.59930 | 37134 ft | 501 kts | 118° |
| 2026-05-06 17:53 | 24.23907 | -75.53435 | 37134 ft | 501 kts | 118° |
| 2026-05-06 17:53 | 24.20238 | -75.46948 | 37134 ft | 501 kts | 118° |
| 2026-05-06 17:54 | 24.16569 | -75.40475 | 37143 ft | 501 kts | 118° |
| 2026-05-06 17:54 | 24.12883 | -75.33990 | 37134 ft | 501 kts | 118° |
| 2026-05-06 17:55 | 24.09218 | -75.27518 | 37131 ft | 501 kts | 117° |
| 2026-05-06 17:55 | 24.05543 | -75.21036 | 37133 ft | 501 kts | 118° |
| 2026-05-06 17:56 | 24.01859 | -75.14575 | 37134 ft | 501 kts | 118° |
| 2026-05-06 17:56 | 23.98169 | -75.08112 | 37133 ft | 501 kts | 118° |
| 2026-05-06 17:57 | 23.94484 | -75.01651 | 37135 ft | 501 kts | 117° |
| 2026-05-06 17:57 | 23.90795 | -74.95195 | 37136 ft | 500 kts | 117° |
| 2026-05-06 17:58 | 23.87106 | -74.88742 | 37125 ft | 500 kts | 117° |
| 2026-05-06 17:58 | 23.83414 | -74.82298 | 37123 ft | 500 kts | 117° |
| 2026-05-06 17:59 | 23.79718 | -74.75865 | 37124 ft | 500 kts | 117° |
| 2026-05-06 17:59 | 23.76011 | -74.69422 | 37127 ft | 500 kts | 117° |
| 2026-05-06 18:00 | 23.72310 | -74.62989 | 37124 ft | 500 kts | 117° |
| 2026-05-06 18:00 | 23.68632 | -74.56594 | 37125 ft | 500 kts | 117° |
| 2026-05-06 18:01 | 23.64930 | -74.50164 | 37130 ft | 500 kts | 117° |
| 2026-05-06 18:01 | 23.61218 | -74.43735 | 37126 ft | 500 kts | 118° |
| 2026-05-06 18:02 | 23.57502 | -74.37317 | 37112 ft | 500 kts | 117° |
| 2026-05-06 18:02 | 23.53791 | -74.30911 | 37127 ft | 500 kts | 117° |
| 2026-05-06 18:03 | 23.50081 | -74.24501 | 37129 ft | 500 kts | 117° |
| 2026-05-06 18:03 | 23.46367 | -74.18096 | 37118 ft | 500 kts | 117° |
| 2026-05-06 18:04 | 23.42644 | -74.11700 | 37124 ft | 500 kts | 117° |
| 2026-05-06 18:04 | 23.38926 | -74.05314 | 37113 ft | 499 kts | 117° |
| 2026-05-06 18:05 | 23.35206 | -73.98929 | 37121 ft | 499 kts | 117° |
| 2026-05-06 18:05 | 23.31485 | -73.92546 | 37115 ft | 499 kts | 117° |
| 2026-05-06 18:06 | 23.27782 | -73.86202 | 37119 ft | 500 kts | 117° |
| 2026-05-06 18:06 | 23.24053 | -73.79827 | 37106 ft | 500 kts | 117° |
| 2026-05-06 18:07 | 23.20324 | -73.73449 | 37099 ft | 499 kts | 117° |
| 2026-05-06 18:07 | 23.16593 | -73.67085 | 37111 ft | 499 kts | 117° |
| 2026-05-06 18:08 | 23.12858 | -73.60736 | 37119 ft | 499 kts | 117° |
| 2026-05-06 18:08 | 23.09122 | -73.54384 | 37113 ft | 498 kts | 117° |
| 2026-05-06 18:09 | 23.05392 | -73.48031 | 37110 ft | 498 kts | 117° |
| 2026-05-06 18:09 | 23.01658 | -73.41694 | 37113 ft | 498 kts | 117° |
| 2026-05-06 18:10 | 22.97915 | -73.35361 | 37113 ft | 498 kts | 117° |
| 2026-05-06 18:10 | 22.94178 | -73.29030 | 37124 ft | 498 kts | 117° |
| 2026-05-06 18:11 | 22.91155 | -73.23914 | 37113 ft | 498 kts | 117° |
| 2026-05-06 18:11 | 22.86806 | -73.16568 | 37112 ft | 498 kts | 117° |
| 2026-05-06 18:12 | 22.83063 | -73.10239 | 37099 ft | 498 kts | 117° |
| 2026-05-06 18:12 | 22.79317 | -73.03924 | 37107 ft | 498 kts | 117° |
| 2026-05-06 18:13 | 22.75564 | -72.97624 | 37111 ft | 497 kts | 117° |
| 2026-05-06 18:13 | 22.71818 | -72.91333 | 37113 ft | 497 kts | 117° |
| 2026-05-06 18:14 | 22.68070 | -72.85032 | 37112 ft | 497 kts | 117° |
| 2026-05-06 18:14 | 22.64324 | -72.78741 | 37102 ft | 497 kts | 117° |
| 2026-05-06 18:15 | 22.60577 | -72.72456 | 37103 ft | 497 kts | 117° |
| 2026-05-06 18:15 | 22.56838 | -72.66212 | 37101 ft | 497 kts | 117° |
| 2026-05-06 18:16 | 22.53083 | -72.59952 | 37114 ft | 497 kts | 117° |
| 2026-05-06 18:16 | 22.49318 | -72.53662 | 37103 ft | 496 kts | 117° |
| 2026-05-06 18:17 | 22.45570 | -72.47402 | 37099 ft | 496 kts | 117° |
| 2026-05-06 18:17 | 22.41813 | -72.41144 | 37095 ft | 496 kts | 117° |
| 2026-05-06 18:18 | 22.38041 | -72.34893 | 37098 ft | 496 kts | 117° |
| 2026-05-06 18:18 | 22.34274 | -72.28652 | 37099 ft | 496 kts | 117° |
| 2026-05-06 18:19 | 22.30516 | -72.22414 | 37114 ft | 496 kts | 117° |
| 2026-05-06 18:19 | 22.27389 | -72.17228 | 37107 ft | 496 kts | 117° |
| 2026-05-06 18:20 | 22.23626 | -72.10988 | 37104 ft | 496 kts | 117° |
| 2026-05-06 18:20 | 22.19855 | -72.04752 | 37097 ft | 496 kts | 117° |
| 2026-05-06 18:21 | 22.16085 | -71.98525 | 37094 ft | 496 kts | 117° |
| 2026-05-06 18:21 | 22.12312 | -71.92301 | 37096 ft | 496 kts | 117° |
| 2026-05-06 18:22 | 22.08535 | -71.86078 | 37104 ft | 496 kts | 117° |
| 2026-05-06 18:22 | 22.04760 | -71.79863 | 37089 ft | 495 kts | 117° |
| 2026-05-06 18:23 | 22.00980 | -71.73652 | 37096 ft | 495 kts | 117° |
| 2026-05-06 18:23 | 21.97229 | -71.67500 | 37099 ft | 494 kts | 117° |
| 2026-05-06 18:24 | 21.93453 | -71.61306 | 37098 ft | 494 kts | 117° |
| 2026-05-06 18:24 | 21.89684 | -71.55132 | 37105 ft | 494 kts | 117° |
| 2026-05-06 18:25 | 21.85908 | -71.48953 | 37100 ft | 494 kts | 117° |
| 2026-05-06 18:25 | 21.82130 | -71.42785 | 37096 ft | 493 kts | 117° |
| 2026-05-06 18:26 | 21.78354 | -71.36615 | 37095 ft | 494 kts | 117° |
| 2026-05-06 18:26 | 21.74581 | -71.30445 | 37092 ft | 493 kts | 117° |
| 2026-05-06 18:27 | 21.70793 | -71.24282 | 37089 ft | 493 kts | 117° |
| 2026-05-06 18:27 | 21.67000 | -71.18124 | 37083 ft | 493 kts | 117° |
| 2026-05-06 18:28 | 21.63218 | -71.11974 | 37093 ft | 493 kts | 117° |
| 2026-05-06 18:28 | 21.59461 | -71.05870 | 37095 ft | 493 kts | 117° |
| 2026-05-06 18:29 | 21.55661 | -70.99738 | 37095 ft | 493 kts | 118° |
| 2026-05-06 18:29 | 21.51787 | -70.93649 | 37093 ft | 493 kts | 118° |
| 2026-05-06 18:30 | 21.47889 | -70.87574 | 37103 ft | 493 kts | 118° |
| 2026-05-06 18:30 | 21.44015 | -70.81502 | 37098 ft | 493 kts | 118° |
| 2026-05-06 18:31 | 21.40151 | -70.75429 | 37092 ft | 492 kts | 118° |
| 2026-05-06 18:31 | 21.36294 | -70.69366 | 37093 ft | 492 kts | 118° |
| 2026-05-06 18:32 | 21.32446 | -70.63344 | 37090 ft | 492 kts | 118° |
| 2026-05-06 18:32 | 21.28576 | -70.57297 | 37079 ft | 492 kts | 118° |
| 2026-05-06 18:33 | 21.24703 | -70.51261 | 37096 ft | 491 kts | 118° |
| 2026-05-06 18:33 | 21.20835 | -70.45233 | 37095 ft | 490 kts | 118° |
| 2026-05-06 18:34 | 21.16977 | -70.39212 | 37093 ft | 490 kts | 118° |
| 2026-05-06 18:34 | 21.13118 | -70.33199 | 37090 ft | 489 kts | 118° |
| 2026-05-06 18:35 | 21.09259 | -70.27198 | 37084 ft | 489 kts | 118° |
| 2026-05-06 18:35 | 21.05402 | -70.21202 | 37083 ft | 489 kts | 118° |
| 2026-05-06 18:36 | 21.01577 | -70.15261 | 37094 ft | 488 kts | 119° |
| 2026-05-06 18:36 | 20.97717 | -70.09280 | 37089 ft | 487 kts | 119° |
| 2026-05-06 18:37 | 20.93864 | -70.03326 | 37087 ft | 487 kts | 119° |
| 2026-05-06 18:37 | 20.90012 | -69.97372 | 37072 ft | 486 kts | 120° |
| 2026-05-06 18:38 | 20.86170 | -69.91426 | 37083 ft | 486 kts | 119° |
| 2026-05-06 18:38 | 20.82327 | -69.85480 | 37094 ft | 485 kts | 120° |
| 2026-05-06 18:39 | 20.78482 | -69.79553 | 37094 ft | 485 kts | 120° |
| 2026-05-06 18:40 | 20.72713 | -69.70680 | 37088 ft | 484 kts | 120° |
| 2026-05-06 18:40 | 20.68873 | -69.64769 | 37086 ft | 484 kts | 120° |
| 2026-05-06 18:41 | 20.65037 | -69.58872 | 37084 ft | 484 kts | 120° |
| 2026-05-06 18:41 | 20.61222 | -69.53015 | 37082 ft | 484 kts | 120° |
| 2026-05-06 18:42 | 20.57377 | -69.47119 | 37097 ft | 483 kts | 121° |
| 2026-05-06 18:42 | 20.53539 | -69.41235 | 37094 ft | 483 kts | 121° |
| 2026-05-06 18:43 | 20.49704 | -69.35355 | 37081 ft | 483 kts | 122° |
| 2026-05-06 18:43 | 20.45864 | -69.29484 | 37081 ft | 483 kts | 122° |
| 2026-05-06 18:44 | 20.42018 | -69.23614 | 37078 ft | 482 kts | 122° |
| 2026-05-06 18:44 | 20.38171 | -69.17742 | 37095 ft | 482 kts | 123° |
| 2026-05-06 18:45 | 20.34331 | -69.11890 | 37091 ft | 482 kts | 123° |
| 2026-05-06 18:45 | 20.30488 | -69.06042 | 37090 ft | 481 kts | 123° |
| 2026-05-06 18:46 | 20.26648 | -69.00200 | 37087 ft | 481 kts | 123° |
| 2026-05-06 18:46 | 20.22808 | -68.94369 | 37088 ft | 481 kts | 123° |
| 2026-05-06 18:47 | 20.18984 | -68.88563 | 37086 ft | 481 kts | 123° |
| 2026-05-06 18:47 | 20.15140 | -68.82725 | 37097 ft | 481 kts | 124° |
| 2026-05-06 18:48 | 20.11288 | -68.76893 | 37098 ft | 480 kts | 124° |
| 2026-05-06 18:48 | 20.07450 | -68.71072 | 37095 ft | 480 kts | 123° |
| 2026-05-06 18:49 | 20.03740 | -68.65172 | 37095 ft | 479 kts | 121° |
| 2026-05-06 18:49 | 20.00141 | -68.59252 | 37092 ft | 479 kts | 121° |
| 2026-05-06 18:50 | 19.96500 | -68.53310 | 37093 ft | 479 kts | 122° |
| 2026-05-06 18:50 | 19.92831 | -68.47390 | 37094 ft | 479 kts | 123° |
| 2026-05-06 18:51 | 19.89158 | -68.41489 | 37091 ft | 479 kts | 123° |
| 2026-05-06 18:51 | 19.85480 | -68.35582 | 37088 ft | 478 kts | 123° |
| 2026-05-06 18:52 | 19.81816 | -68.29680 | 37087 ft | 478 kts | 123° |
| 2026-05-06 18:52 | 19.78149 | -68.23791 | 37085 ft | 478 kts | 123° |
| 2026-05-06 18:53 | 19.74476 | -68.17908 | 37081 ft | 478 kts | 124° |
| 2026-05-06 18:53 | 19.70809 | -68.12028 | 37083 ft | 478 kts | 124° |
| 2026-05-06 18:54 | 19.67164 | -68.06181 | 37087 ft | 478 kts | 124° |
| 2026-05-06 18:54 | 19.63485 | -68.00300 | 37088 ft | 478 kts | 124° |
| 2026-05-06 18:55 | 19.59810 | -67.94421 | 37083 ft | 478 kts | 124° |
| 2026-05-06 18:55 | 19.56125 | -67.88549 | 37084 ft | 478 kts | 124° |
| 2026-05-06 18:56 | 19.52444 | -67.82683 | 37090 ft | 478 kts | 124° |
| 2026-05-06 18:56 | 19.48762 | -67.76807 | 37088 ft | 478 kts | 124° |
| 2026-05-06 18:57 | 19.45103 | -67.70969 | 37088 ft | 478 kts | 124° |
| 2026-05-06 18:57 | 19.41392 | -67.65077 | 37082 ft | 478 kts | 124° |
| 2026-05-06 18:58 | 19.37702 | -67.59229 | 37079 ft | 477 kts | 124° |
| 2026-05-06 18:58 | 19.34042 | -67.53415 | 37064 ft | 477 kts | 125° |
| 2026-05-06 18:59 | 19.30363 | -67.47577 | 37078 ft | 476 kts | 125° |
| 2026-05-06 18:59 | 19.26691 | -67.41749 | 37076 ft | 475 kts | 125° |
| 2026-05-06 19:00 | 19.23020 | -67.35940 | 37074 ft | 475 kts | 125° |
| 2026-05-06 19:00 | 19.19344 | -67.30137 | 37073 ft | 475 kts | 125° |
| 2026-05-06 19:01 | 19.15675 | -67.24336 | 37072 ft | 474 kts | 125° |
| 2026-05-06 19:01 | 19.12010 | -67.18532 | 37077 ft | 474 kts | 125° |
| 2026-05-06 19:02 | 19.08337 | -67.12746 | 37075 ft | 474 kts | 125° |
| 2026-05-06 19:02 | 19.04664 | -67.06968 | 37072 ft | 473 kts | 125° |
| 2026-05-06 19:03 | 19.00996 | -67.01189 | 37068 ft | 473 kts | 125° |
| 2026-05-06 19:03 | 18.97325 | -66.95413 | 37070 ft | 473 kts | 125° |
| 2026-05-06 19:04 | 18.93656 | -66.89641 | 37056 ft | 473 kts | 126° |
| 2026-05-06 19:04 | 18.89979 | -66.83870 | 37064 ft | 473 kts | 126° |
| 2026-05-06 19:05 | 18.86317 | -66.78149 | 37066 ft | 473 kts | 126° |
| 2026-05-06 19:05 | 18.82641 | -66.72384 | 37069 ft | 473 kts | 126° |
| 2026-05-06 19:06 | 18.78972 | -66.66624 | 37066 ft | 473 kts | 124° |
| 2026-05-06 19:06 | 18.76277 | -66.60279 | 37071 ft | 477 kts | 105° |
| 2026-05-06 19:07 | 18.75492 | -66.54524 | 37060 ft | 478 kts | 95° |
| 2026-05-06 19:07 | 18.75036 | -66.47523 | 37056 ft | 479 kts | 95° |
| 2026-05-06 19:08 | 18.74566 | -66.40508 | 37056 ft | 479 kts | 95° |
| 2026-05-06 19:08 | 18.74092 | -66.33495 | 37058 ft | 479 kts | 95° |
| 2026-05-06 19:09 | 18.73625 | -66.26484 | 37064 ft | 479 kts | 95° |
| 2026-05-06 19:09 | 18.73153 | -66.19461 | 37069 ft | 480 kts | 95° |
| 2026-05-06 19:10 | 18.72669 | -66.12441 | 37068 ft | 480 kts | 95° |
| 2026-05-06 19:10 | 18.72181 | -66.05407 | 37069 ft | 481 kts | 95° |
| 2026-05-06 19:11 | 18.71697 | -65.98372 | 37077 ft | 481 kts | 95° |
| 2026-05-06 19:11 | 18.71216 | -65.91338 | 37068 ft | 481 kts | 95° |
| 2026-05-06 19:11 | 18.70977 | -65.87861 | 36588 ft | 481 kts | 95° |
| 2026-05-06 19:12 | 18.70732 | -65.84338 | 35967 ft | 482 kts | 95° |
| 2026-05-06 19:12 | 18.70484 | -65.80814 | 35344 ft | 482 kts | 95° |
| 2026-05-06 19:12 | 18.70237 | -65.77294 | 34847 ft | 480 kts | 95° |
| 2026-05-06 19:12 | 18.69993 | -65.73804 | 34511 ft | 474 kts | 95° |
| 2026-05-06 19:13 | 18.69753 | -65.70351 | 34113 ft | 470 kts | 95° |
| 2026-05-06 19:13 | 18.69514 | -65.66927 | 33654 ft | 466 kts | 94° |
| 2026-05-06 19:13 | 18.69279 | -65.63527 | 33194 ft | 463 kts | 94° |
| 2026-05-06 19:13 | 18.69042 | -65.60155 | 32727 ft | 459 kts | 94° |
| 2026-05-06 19:14 | 18.68801 | -65.56814 | 32271 ft | 455 kts | 94° |
| 2026-05-06 19:14 | 18.68562 | -65.53506 | 31837 ft | 451 kts | 94° |
| 2026-05-06 19:14 | 18.68325 | -65.50219 | 31402 ft | 447 kts | 94° |
| 2026-05-06 19:14 | 18.68092 | -65.46966 | 30973 ft | 443 kts | 94° |
| 2026-05-06 19:15 | 18.67860 | -65.43729 | 30551 ft | 439 kts | 94° |
| 2026-05-06 19:15 | 18.67630 | -65.40525 | 30130 ft | 436 kts | 93° |
| 2026-05-06 19:15 | 18.67401 | -65.37362 | 29657 ft | 432 kts | 95° |
| 2026-05-06 19:15 | 18.66967 | -65.34231 | 29190 ft | 429 kts | 99° |
| 2026-05-06 19:16 | 18.66463 | -65.31146 | 28735 ft | 425 kts | 99° |
| 2026-05-06 19:16 | 18.65965 | -65.28094 | 28329 ft | 421 kts | 98° |
| 2026-05-06 19:16 | 18.65468 | -65.25060 | 27934 ft | 417 kts | 98° |
| 2026-05-06 19:16 | 18.64977 | -65.22063 | 27529 ft | 413 kts | 98° |
| 2026-05-06 19:17 | 18.64491 | -65.19090 | 27123 ft | 410 kts | 98° |
| 2026-05-06 19:17 | 18.64010 | -65.16137 | 26731 ft | 407 kts | 98° |
| 2026-05-06 19:17 | 18.63531 | -65.13209 | 26340 ft | 404 kts | 98° |
| 2026-05-06 19:17 | 18.63054 | -65.10303 | 25949 ft | 401 kts | 98° |
| 2026-05-06 19:18 | 18.62581 | -65.07416 | 25556 ft | 398 kts | 98° |
| 2026-05-06 19:18 | 18.62111 | -65.04556 | 25166 ft | 395 kts | 98° |
| 2026-05-06 19:18 | 18.61646 | -65.01714 | 24780 ft | 392 kts | 98° |
| 2026-05-06 19:18 | 18.61184 | -64.98894 | 24403 ft | 389 kts | 98° |
| 2026-05-06 19:19 | 18.60723 | -64.96088 | 24028 ft | 386 kts | 97° |
| 2026-05-06 19:19 | 18.60269 | -64.93308 | 23652 ft | 383 kts | 98° |
| 2026-05-06 19:19 | 18.59817 | -64.90554 | 23193 ft | 380 kts | 98° |
| 2026-05-06 19:19 | 18.59364 | -64.87814 | 22717 ft | 378 kts | 98° |
| 2026-05-06 19:20 | 18.58911 | -64.85094 | 22250 ft | 376 kts | 98° |
| 2026-05-06 19:20 | 18.58461 | -64.82390 | 21796 ft | 374 kts | 98° |
| 2026-05-06 19:20 | 18.58015 | -64.79696 | 21346 ft | 372 kts | 98° |
| 2026-05-06 19:20 | 18.57574 | -64.77017 | 20907 ft | 370 kts | 98° |
| 2026-05-06 19:21 | 18.57139 | -64.74383 | 20478 ft | 368 kts | 98° |
| 2026-05-06 19:21 | 18.56697 | -64.71728 | 20057 ft | 366 kts | 98° |
| 2026-05-06 19:21 | 18.56258 | -64.69090 | 19628 ft | 365 kts | 98° |
| 2026-05-06 19:21 | 18.55822 | -64.66458 | 19216 ft | 363 kts | 98° |
| 2026-05-06 19:22 | 18.55388 | -64.63842 | 18810 ft | 362 kts | 98° |
| 2026-05-06 19:22 | 18.54954 | -64.61242 | 18411 ft | 360 kts | 99° |
| 2026-05-06 19:22 | 18.54519 | -64.58643 | 17968 ft | 358 kts | 99° |
| 2026-05-06 19:22 | 18.54085 | -64.56067 | 17546 ft | 356 kts | 99° |
| 2026-05-06 19:23 | 18.53657 | -64.53505 | 17143 ft | 354 kts | 99° |
| 2026-05-06 19:23 | 18.53234 | -64.50959 | 16739 ft | 351 kts | 98° |
| 2026-05-06 19:23 | 18.52812 | -64.48429 | 16337 ft | 349 kts | 98° |
| 2026-05-06 19:23 | 18.52396 | -64.45921 | 16053 ft | 346 kts | 99° |
| 2026-05-06 19:24 | 18.51981 | -64.43422 | 15998 ft | 346 kts | 99° |
| 2026-05-06 19:24 | 18.51561 | -64.40915 | 16019 ft | 348 kts | 99° |
| 2026-05-06 19:24 | 18.51134 | -64.38396 | 16020 ft | 349 kts | 99° |
| 2026-05-06 19:24 | 18.50707 | -64.35876 | 16017 ft | 348 kts | 99° |
| 2026-05-06 19:25 | 18.50292 | -64.33398 | 16018 ft | 347 kts | 99° |
| 2026-05-06 19:25 | 18.49871 | -64.30894 | 16017 ft | 347 kts | 99° |
| 2026-05-06 19:25 | 18.49451 | -64.28391 | 16019 ft | 347 kts | 99° |
| 2026-05-06 19:25 | 18.49029 | -64.25892 | 16018 ft | 346 kts | 99° |
| 2026-05-06 19:26 | 18.48607 | -64.23390 | 16007 ft | 347 kts | 99° |
| 2026-05-06 19:26 | 18.48185 | -64.20890 | 16005 ft | 347 kts | 99° |
| 2026-05-06 19:26 | 18.47761 | -64.18392 | 16005 ft | 347 kts | 99° |
| 2026-05-06 19:26 | 18.47339 | -64.15889 | 16004 ft | 346 kts | 99° |
| 2026-05-06 19:27 | 18.46919 | -64.13393 | 16004 ft | 344 kts | 99° |
| 2026-05-06 19:27 | 18.46508 | -64.10964 | 15992 ft | 329 kts | 99° |
| 2026-05-06 19:27 | 18.46109 | -64.08609 | 15998 ft | 334 kts | 99° |
| 2026-05-06 19:27 | 18.45685 | -64.06103 | 15995 ft | 360 kts | 99° |
| 2026-05-06 19:28 | 18.45235 | -64.03450 | 15995 ft | 372 kts | 99° |
| 2026-05-06 19:28 | 18.44777 | -64.00751 | 15987 ft | 376 kts | 99° |
| 2026-05-06 19:28 | 18.44317 | -63.98043 | 15993 ft | 376 kts | 99° |
| 2026-05-06 19:28 | 18.43864 | -63.95369 | 15995 ft | 376 kts | 99° |
| 2026-05-06 19:29 | 18.43393 | -63.92620 | 15993 ft | 376 kts | 99° |
| 2026-05-06 19:29 | 18.42929 | -63.89912 | 15982 ft | 376 kts | 99° |
| 2026-05-06 19:29 | 18.42473 | -63.87236 | 15972 ft | 375 kts | 99° |
| 2026-05-06 19:29 | 18.42014 | -63.84555 | 15514 ft | 371 kts | 99° |
| 2026-05-06 19:30 | 18.41556 | -63.81880 | 14992 ft | 369 kts | 99° |
| 2026-05-06 19:30 | 18.41101 | -63.79234 | 14537 ft | 366 kts | 98° |
| 2026-05-06 19:30 | 18.40651 | -63.76616 | 14091 ft | 362 kts | 98° |
| 2026-05-06 19:30 | 18.40202 | -63.74013 | 13601 ft | 359 kts | 98° |
| 2026-05-06 19:31 | 18.39761 | -63.71432 | 13103 ft | 356 kts | 99° |
| 2026-05-06 19:31 | 18.39325 | -63.68876 | 12645 ft | 352 kts | 99° |
| 2026-05-06 19:31 | 18.37728 | -63.64119 | 11744 ft | 347 kts | 132° |
| 2026-05-06 19:32 | 18.35901 | -63.62472 | 11266 ft | 345 kts | 143° |
| 2026-05-06 19:32 | 18.33956 | -63.61013 | 10852 ft | 342 kts | 146° |
| 2026-05-06 19:32 | 18.32003 | -63.59647 | 10424 ft | 340 kts | 147° |
| 2026-05-06 19:32 | 18.30030 | -63.58295 | 10031 ft | 336 kts | 147° |
| 2026-05-06 19:33 | 18.28098 | -63.56960 | 9838 ft | 325 kts | 146° |
| 2026-05-06 19:33 | 18.26276 | -63.55681 | 9688 ft | 304 kts | 146° |
| 2026-05-06 19:33 | 18.24560 | -63.54459 | 9259 ft | 293 kts | 145° |
| 2026-05-06 19:33 | 18.22891 | -63.53255 | 8710 ft | 288 kts | 145° |
| 2026-05-06 19:34 | 18.21248 | -63.52065 | 8151 ft | 284 kts | 145° |
| 2026-05-06 19:34 | 18.19629 | -63.50894 | 7610 ft | 280 kts | 145° |
| 2026-05-06 19:34 | 18.18041 | -63.49748 | 7097 ft | 275 kts | 145° |
| 2026-05-06 19:34 | 18.16483 | -63.48623 | 6752 ft | 264 kts | 145° |
| 2026-05-06 19:35 | 18.15022 | -63.47567 | 6631 ft | 245 kts | 145° |
| 2026-05-06 19:35 | 18.13666 | -63.46587 | 6453 ft | 230 kts | 145° |
| 2026-05-06 19:35 | 18.12359 | -63.45645 | 6072 ft | 225 kts | 145° |
| 2026-05-06 19:35 | 18.11081 | -63.44726 | 5635 ft | 222 kts | 145° |
| 2026-05-06 19:36 | 18.09807 | -63.43809 | 5206 ft | 220 kts | 145° |
| 2026-05-06 19:36 | 18.08542 | -63.42900 | 4757 ft | 219 kts | 145° |
| 2026-05-06 19:36 | 18.07306 | -63.42010 | 4327 ft | 218 kts | 144° |
| 2026-05-06 19:36 | 18.06059 | -63.41112 | 3864 ft | 217 kts | 145° |
| 2026-05-06 19:37 | 18.04843 | -63.40236 | 3633 ft | 204 kts | 144° |
| 2026-05-06 19:37 | 18.03721 | -63.39429 | 3500 ft | 188 kts | 144° |
| 2026-05-06 19:37 | 18.02712 | -63.38649 | 3370 ft | 174 kts | 138° |
| 2026-05-06 19:37 | 18.02145 | -63.38040 | 3145 ft | 171 kts | 129° |
| 2026-05-06 19:38 | 18.01335 | -63.36685 | 2845 ft | 161 kts | 114° |
| 2026-05-06 19:38 | 18.00979 | -63.35593 | 2680 ft | 154 kts | 104° |
| 2026-05-06 19:38 | 18.00830 | -63.34534 | 2533 ft | 142 kts | 94° |
| 2026-05-06 19:38 | 18.00855 | -63.33505 | 2327 ft | 140 kts | 85° |
| 2026-05-06 19:39 | 18.00997 | -63.32502 | 2114 ft | 136 kts | 84° |
| 2026-05-06 19:39 | 18.01139 | -63.31497 | 2038 ft | 141 kts | 83° |
| 2026-05-06 19:39 | 18.01284 | -63.30483 | 2011 ft | 141 kts | 83° |
| 2026-05-06 19:39 | 18.01428 | -63.29475 | 2008 ft | 140 kts | 84° |
| 2026-05-06 19:40 | 18.01567 | -63.28489 | 2016 ft | 135 kts | 83° |
| 2026-05-06 19:40 | 18.01697 | -63.27533 | 1757 ft | 131 kts | 83° |
| 2026-05-06 19:40 | 18.01827 | -63.26578 | 1343 ft | 132 kts | 85° |
| 2026-05-06 19:40 | 18.01954 | -63.25640 | 1285 ft | 131 kts | 86° |
| 2026-05-06 19:41 | 18.02082 | -63.24677 | 1231 ft | 135 kts | 83° |
| 2026-05-06 19:41 | 18.02212 | -63.23697 | 1216 ft | 136 kts | 86° |
| 2026-05-06 19:41 | 18.02344 | -63.22719 | 1211 ft | 134 kts | 86° |
| 2026-05-06 19:41 | 18.02475 | -63.21744 | 1211 ft | 135 kts | 83° |
| 2026-05-06 19:42 | 18.02606 | -63.20766 | 1216 ft | 135 kts | 83° |
| 2026-05-06 19:42 | 18.02742 | -63.19784 | 1204 ft | 137 kts | 84° |
| 2026-05-06 19:42 | 18.02946 | -63.18804 | 1144 ft | 139 kts | 79° |
| 2026-05-06 19:42 | 18.03207 | -63.17827 | 1056 ft | 137 kts | 77° |
| 2026-05-06 19:43 | 18.03392 | -63.16852 | 890 ft | 137 kts | 83° |
| 2026-05-06 19:43 | 18.03465 | -63.15844 | 725 ft | 139 kts | 90° |
| 2026-05-06 19:43 | 18.03536 | -63.14840 | 485 ft | 136 kts | 83° |
| 2026-05-06 19:43 | 18.03686 | -63.13865 | 351 ft | 137 kts | 85° |
| 2026-05-06 19:44 | 18.03812 | -63.12882 | 223 ft | 137 kts | 83° |
| 2026-05-06 19:44 | 18.03948 | -63.11897 | 66 ft | 133 kts | 83° |
| 2026-05-06 19:44 | 18.04050 | -63.11126 | 25 ft | 106 kts | 78° |
| 2026-05-06 19:44 | 18.04136 | -63.10584 | 21 ft | 33 kts | 78° |
| 2026-05-06 19:45 | 18.04162 | -63.10407 | 20 ft | 26 kts | 81° |
| 2026-05-06 19:45 | 18.04191 | -63.10216 | 20 ft | 27 kts | 82° |
| 2026-05-06 19:45 | 18.04216 | -63.10031 | 19 ft | 22 kts | 79° |
| 2026-05-06 19:45 | 18.04280 | -63.09897 | 21 ft | 12 kts | 56° |
| 2026-05-06 19:46 | 18.04270 | -63.09851 | 21 ft | 11 kts | 169° |
| 2026-05-06 19:46 | 18.04244 | -63.09870 | 20 ft | 2 kts | 232° |
| 2026-05-06 19:46 | 18.04235 | -63.09904 | 20 ft | 6 kts | 259° |
| 2026-05-06 19:46 | 18.04226 | -63.09961 | 21 ft | 10 kts | 261° |
| 2026-05-06 19:47 | 18.04214 | -63.10042 | 21 ft | 13 kts | 261° |
| 2026-05-06 19:47 | 18.04200 | -63.10142 | 19 ft | 15 kts | 262° |
| 2026-05-06 19:47 | 18.04183 | -63.10260 | 20 ft | 18 kts | 262° |
| 2026-05-06 19:47 | 18.04164 | -63.10394 | 20 ft | 20 kts | 262° |
| 2026-05-06 19:48 | 18.04143 | -63.10543 | 23 ft | 22 kts | 262° |
| 2026-05-06 19:48 | 18.04119 | -63.10711 | 23 ft | 25 kts | 262° |
| 2026-05-06 19:48 | 18.04092 | -63.10900 | 22 ft | 28 kts | 261° |
| 2026-05-06 19:48 | 18.04069 | -63.11067 | 22 ft | 17 kts | 262° |
| 2026-05-06 19:49 | 18.04055 | -63.11170 | 23 ft | 15 kts | 260° |
| 2026-05-06 19:49 | 18.04073 | -63.11277 | 21 ft | 8 kts | 320° |
| 2026-05-06 19:49 | 18.04105 | -63.11291 | 21 ft | 8 kts | 349° |
| 2026-05-06 19:49 | 18.04176 | -63.11302 | 21 ft | 0 kts | 351° |
| 2026-05-06 19:50 | 18.04187 | -63.11304 | 21 ft | 3 kts | 351° |
| 2026-05-06 19:50 | 18.04218 | -63.11312 | 21 ft | 6 kts | 333° |
| 2026-05-06 19:50 | 18.04239 | -63.11353 | 21 ft | 8 kts | 274° |
| 2026-05-06 19:50 | 18.04230 | -63.11421 | 21 ft | 11 kts | 261° |
| 2026-05-06 19:51 | 18.04224 | -63.11465 | 21 ft | 6 kts | 265° |
| 2026-05-06 19:51 | 18.04260 | -63.11490 | 21 ft | 8 kts | 349° |
| 2026-05-06 19:51 | 18.04302 | -63.11497 | 21 ft | 5 kts | 351° |
| 2026-05-06 19:51 | 18.04314 | -63.11499 | 21 ft | 0 kts | 351° |